sensor_id;sensor_type;location;lat;lon;timestamp;temperature;humidity
52181;DHT22;38158;53.338;6.514;2022-08-19T00:01:51;15.60;99.90
52181;DHT22;38158;53.338;6.514;2022-08-19T00:04:19;15.60;99.90
52181;DHT22;38158;53.338;6.514;2022-08-19T00:06:47;15.60;99.90
52181;DHT22;38158;53.338;6.514;2022-08-19T00:09:15;15.60;99.90
52181;DHT22;38158;53.338;6.514;2022-08-19T00:11:42;15.60;99.90
52181;DHT22;38158;53.338;6.514;2022-08-19T00:14:09;15.60;99.90
52181;DHT22;38158;53.338;6.514;2022-08-19T00:16:40;15.50;99.90
52181;DHT22;38158;53.338;6.514;2022-08-19T00:19:07;15.50;99.90
52181;DHT22;38158;53.338;6.514;2022-08-19T00:21:34;15.40;99.90
52181;DHT22;38158;53.338;6.514;2022-08-19T00:24:07;15.40;99.90
52181;DHT22;38158;53.338;6.514;2022-08-19T00:26:33;15.40;99.90
52181;DHT22;38158;53.338;6.514;2022-08-19T00:28:59;15.40;99.90
52181;DHT22;38158;53.338;6.514;2022-08-19T00:31:26;15.40;99.90
52181;DHT22;38158;53.338;6.514;2022-08-19T00:33:53;15.40;99.90
52181;DHT22;38158;53.338;6.514;2022-08-19T00:36:19;15.40;99.90
52181;DHT22;38158;53.338;6.514;2022-08-19T00:38:45;15.40;99.90
52181;DHT22;38158;53.338;6.514;2022-08-19T00:41:14;15.30;99.90
52181;DHT22;38158;53.338;6.514;2022-08-19T00:43:40;15.30;99.90
52181;DHT22;38158;53.338;6.514;2022-08-19T00:46:06;15.20;99.90
52181;DHT22;38158;53.338;6.514;2022-08-19T00:48:33;15.00;99.90
52181;DHT22;38158;53.338;6.514;2022-08-19T00:50:59;14.80;99.90
52181;DHT22;38158;53.338;6.514;2022-08-19T00:53:29;14.50;99.90
52181;DHT22;38158;53.338;6.514;2022-08-19T00:55:58;14.40;99.90
52181;DHT22;38158;53.338;6.514;2022-08-19T00:58:27;14.30;99.90
52181;DHT22;38158;53.338;6.514;2022-08-19T01:00:54;14.20;99.90
52181;DHT22;38158;53.338;6.514;2022-08-19T01:03:21;14.30;99.90
52181;DHT22;38158;53.338;6.514;2022-08-19T01:05:48;14.30;99.90
52181;DHT22;38158;53.338;6.514;2022-08-19T01:08:16;14.30;99.90
52181;DHT22;38158;53.338;6.514;2022-08-19T01:10:47;14.40;99.90
52181;DHT22;38158;53.338;6.514;2022-08-19T01:13:20;14.50;99.90
52181;DHT22;38158;53.338;6.514;2022-08-19T01:16:10;14.50;99.90
52181;DHT22;38158;53.338;6.514;2022-08-19T01:18:40;14.60;99.90
52181;DHT22;38158;53.338;6.514;2022-08-19T01:23:59;14.60;99.90
52181;DHT22;38158;53.338;6.514;2022-08-19T01:26:26;14.70;99.90
52181;DHT22;38158;53.338;6.514;2022-08-19T01:28:53;14.70;99.90
52181;DHT22;38158;53.338;6.514;2022-08-19T01:31:23;14.70;99.90
52181;DHT22;38158;53.338;6.514;2022-08-19T01:33:51;14.70;99.90
52181;DHT22;38158;53.338;6.514;2022-08-19T01:38:52;14.70;99.90
52181;DHT22;38158;53.338;6.514;2022-08-19T01:41:18;14.80;99.90
52181;DHT22;38158;53.338;6.514;2022-08-19T01:43:45;14.80;99.90
52181;DHT22;38158;53.338;6.514;2022-08-19T01:46:11;14.80;99.90
52181;DHT22;38158;53.338;6.514;2022-08-19T01:48:39;14.80;99.90
52181;DHT22;38158;53.338;6.514;2022-08-19T01:51:06;14.80;99.90
52181;DHT22;38158;53.338;6.514;2022-08-19T01:53:32;14.80;99.90
52181;DHT22;38158;53.338;6.514;2022-08-19T01:55:58;14.70;99.90
52181;DHT22;38158;53.338;6.514;2022-08-19T01:58:28;14.70;99.90
52181;DHT22;38158;53.338;6.514;2022-08-19T02:00:56;14.80;99.90
52181;DHT22;38158;53.338;6.514;2022-08-19T02:03:21;14.80;99.90
52181;DHT22;38158;53.338;6.514;2022-08-19T02:05:48;14.80;99.90
52181;DHT22;38158;53.338;6.514;2022-08-19T02:08:18;14.80;99.90
52181;DHT22;38158;53.338;6.514;2022-08-19T02:10:44;14.80;99.90
52181;DHT22;38158;53.338;6.514;2022-08-19T02:13:12;14.80;99.90
52181;DHT22;38158;53.338;6.514;2022-08-19T02:15:39;14.80;99.90
52181;DHT22;38158;53.338;6.514;2022-08-19T02:18:05;14.80;99.90
52181;DHT22;38158;53.338;6.514;2022-08-19T02:20:31;14.80;99.90
52181;DHT22;38158;53.338;6.514;2022-08-19T02:22:57;14.80;99.90
52181;DHT22;38158;53.338;6.514;2022-08-19T02:25:23;14.90;99.90
52181;DHT22;38158;53.338;6.514;2022-08-19T02:27:48;14.80;99.90
52181;DHT22;38158;53.338;6.514;2022-08-19T02:30:15;14.80;99.90
52181;DHT22;38158;53.338;6.514;2022-08-19T02:32:42;14.80;99.90
52181;DHT22;38158;53.338;6.514;2022-08-19T02:35:08;14.80;99.90
52181;DHT22;38158;53.338;6.514;2022-08-19T02:37:34;14.80;99.90
52181;DHT22;38158;53.338;6.514;2022-08-19T02:40:19;14.80;99.90
52181;DHT22;38158;53.338;6.514;2022-08-19T02:42:45;14.70;99.90
52181;DHT22;38158;53.338;6.514;2022-08-19T02:45:12;14.70;99.90
52181;DHT22;38158;53.338;6.514;2022-08-19T02:47:38;14.70;99.90
52181;DHT22;38158;53.338;6.514;2022-08-19T02:50:05;14.80;99.90
52181;DHT22;38158;53.338;6.514;2022-08-19T02:52:33;14.80;99.90
52181;DHT22;38158;53.338;6.514;2022-08-19T02:54:59;14.80;99.90
52181;DHT22;38158;53.338;6.514;2022-08-19T02:57:25;14.80;99.90
52181;DHT22;38158;53.338;6.514;2022-08-19T02:59:52;14.80;99.90
52181;DHT22;38158;53.338;6.514;2022-08-19T03:02:17;14.70;99.90
52181;DHT22;38158;53.338;6.514;2022-08-19T03:04:43;14.70;99.90
52181;DHT22;38158;53.338;6.514;2022-08-19T03:07:12;14.80;99.90
52181;DHT22;38158;53.338;6.514;2022-08-19T03:09:39;14.80;99.90
52181;DHT22;38158;53.338;6.514;2022-08-19T03:12:05;14.80;99.90
52181;DHT22;38158;53.338;6.514;2022-08-19T03:14:34;14.70;99.90
52181;DHT22;38158;53.338;6.514;2022-08-19T03:17:01;14.70;99.90
52181;DHT22;38158;53.338;6.514;2022-08-19T03:19:27;14.70;99.90
52181;DHT22;38158;53.338;6.514;2022-08-19T03:21:53;14.70;99.90
52181;DHT22;38158;53.338;6.514;2022-08-19T03:24:19;14.70;99.90
52181;DHT22;38158;53.338;6.514;2022-08-19T03:26:53;14.70;99.90
52181;DHT22;38158;53.338;6.514;2022-08-19T03:29:22;14.70;99.90
52181;DHT22;38158;53.338;6.514;2022-08-19T03:31:48;14.60;99.90
52181;DHT22;38158;53.338;6.514;2022-08-19T03:34:19;14.60;99.90
52181;DHT22;38158;53.338;6.514;2022-08-19T03:36:45;14.60;99.90
52181;DHT22;38158;53.338;6.514;2022-08-19T03:39:12;14.60;99.90
52181;DHT22;38158;53.338;6.514;2022-08-19T03:41:40;14.60;99.90
52181;DHT22;38158;53.338;6.514;2022-08-19T03:44:06;14.60;99.90
52181;DHT22;38158;53.338;6.514;2022-08-19T03:46:33;14.60;99.90
52181;DHT22;38158;53.338;6.514;2022-08-19T03:49:00;14.60;99.90
52181;DHT22;38158;53.338;6.514;2022-08-19T03:51:30;14.60;99.90
52181;DHT22;38158;53.338;6.514;2022-08-19T03:53:58;14.60;99.90
52181;DHT22;38158;53.338;6.514;2022-08-19T03:56:24;14.60;99.90
52181;DHT22;38158;53.338;6.514;2022-08-19T03:58:54;14.60;99.90
52181;DHT22;38158;53.338;6.514;2022-08-19T04:01:21;14.60;99.90
52181;DHT22;38158;53.338;6.514;2022-08-19T04:03:48;14.60;99.90
52181;DHT22;38158;53.338;6.514;2022-08-19T04:06:22;14.50;99.90
52181;DHT22;38158;53.338;6.514;2022-08-19T04:08:50;14.50;99.90
52181;DHT22;38158;53.338;6.514;2022-08-19T04:11:19;14.40;99.90
52181;DHT22;38158;53.338;6.514;2022-08-19T04:13:47;14.40;99.90
52181;DHT22;38158;53.338;6.514;2022-08-19T04:16:13;14.40;99.90
52181;DHT22;38158;53.338;6.514;2022-08-19T04:18:40;14.40;99.90
52181;DHT22;38158;53.338;6.514;2022-08-19T04:21:07;14.30;99.90
52181;DHT22;38158;53.338;6.514;2022-08-19T04:23:33;14.30;99.90
52181;DHT22;38158;53.338;6.514;2022-08-19T04:26:01;14.30;99.90
52181;DHT22;38158;53.338;6.514;2022-08-19T04:28:28;14.30;99.90
52181;DHT22;38158;53.338;6.514;2022-08-19T04:30:55;14.20;99.90
52181;DHT22;38158;53.338;6.514;2022-08-19T04:33:23;14.10;99.90
52181;DHT22;38158;53.338;6.514;2022-08-19T04:35:51;14.00;99.90
52181;DHT22;38158;53.338;6.514;2022-08-19T04:38:20;14.00;99.90
52181;DHT22;38158;53.338;6.514;2022-08-19T04:40:48;14.00;99.90
52181;DHT22;38158;53.338;6.514;2022-08-19T04:43:34;14.20;99.90
52181;DHT22;38158;53.338;6.514;2022-08-19T04:46:06;14.00;99.90
52181;DHT22;38158;53.338;6.514;2022-08-19T04:48:34;14.10;99.90
52181;DHT22;38158;53.338;6.514;2022-08-19T04:50:59;14.10;99.90
52181;DHT22;38158;53.338;6.514;2022-08-19T04:53:30;14.10;99.90
52181;DHT22;38158;53.338;6.514;2022-08-19T04:55:57;14.10;99.90
52181;DHT22;38158;53.338;6.514;2022-08-19T04:58:25;14.20;99.90
52181;DHT22;38158;53.338;6.514;2022-08-19T05:00:51;14.20;99.90
52181;DHT22;38158;53.338;6.514;2022-08-19T05:03:17;14.20;99.90
52181;DHT22;38158;53.338;6.514;2022-08-19T05:05:45;14.30;99.90
52181;DHT22;38158;53.338;6.514;2022-08-19T05:08:16;14.30;99.90
52181;DHT22;38158;53.338;6.514;2022-08-19T05:10:50;14.30;99.90
52181;DHT22;38158;53.338;6.514;2022-08-19T05:13:18;14.40;99.90
52181;DHT22;38158;53.338;6.514;2022-08-19T05:15:55;14.50;99.90
52181;DHT22;38158;53.338;6.514;2022-08-19T05:18:21;14.60;99.90
52181;DHT22;38158;53.338;6.514;2022-08-19T05:21:08;14.60;99.90
52181;DHT22;38158;53.338;6.514;2022-08-19T05:23:52;14.70;99.90
52181;DHT22;38158;53.338;6.514;2022-08-19T05:26:18;14.70;99.90
52181;DHT22;38158;53.338;6.514;2022-08-19T05:28:44;14.70;99.90
52181;DHT22;38158;53.338;6.514;2022-08-19T05:31:09;14.80;99.90
52181;DHT22;38158;53.338;6.514;2022-08-19T05:33:35;14.80;99.90
52181;DHT22;38158;53.338;6.514;2022-08-19T05:36:01;14.80;99.90
52181;DHT22;38158;53.338;6.514;2022-08-19T05:38:28;14.90;99.90
52181;DHT22;38158;53.338;6.514;2022-08-19T05:40:54;14.90;99.90
52181;DHT22;38158;53.338;6.514;2022-08-19T05:43:19;15.00;99.90
52181;DHT22;38158;53.338;6.514;2022-08-19T05:45:45;15.10;99.90
52181;DHT22;38158;53.338;6.514;2022-08-19T05:48:11;15.20;99.90
52181;DHT22;38158;53.338;6.514;2022-08-19T05:50:39;15.20;99.90
52181;DHT22;38158;53.338;6.514;2022-08-19T05:53:05;15.30;99.90
52181;DHT22;38158;53.338;6.514;2022-08-19T05:55:32;15.30;99.90
52181;DHT22;38158;53.338;6.514;2022-08-19T05:57:58;15.40;99.90
52181;DHT22;38158;53.338;6.514;2022-08-19T06:00:24;15.40;99.90
52181;DHT22;38158;53.338;6.514;2022-08-19T06:02:49;15.50;99.90
52181;DHT22;38158;53.338;6.514;2022-08-19T06:05:16;15.50;99.90
52181;DHT22;38158;53.338;6.514;2022-08-19T06:07:42;15.60;99.90
52181;DHT22;38158;53.338;6.514;2022-08-19T06:10:10;15.70;99.90
52181;DHT22;38158;53.338;6.514;2022-08-19T06:12:36;15.80;99.90
52181;DHT22;38158;53.338;6.514;2022-08-19T06:15:06;15.80;99.90
52181;DHT22;38158;53.338;6.514;2022-08-19T06:17:32;16.00;99.90
52181;DHT22;38158;53.338;6.514;2022-08-19T06:20:00;16.00;99.90
52181;DHT22;38158;53.338;6.514;2022-08-19T06:22:27;16.10;99.90
52181;DHT22;38158;53.338;6.514;2022-08-19T06:24:54;16.10;99.90
52181;DHT22;38158;53.338;6.514;2022-08-19T06:27:20;16.20;99.90
52181;DHT22;38158;53.338;6.514;2022-08-19T06:29:46;16.30;99.90
52181;DHT22;38158;53.338;6.514;2022-08-19T06:32:13;16.40;99.90
52181;DHT22;38158;53.338;6.514;2022-08-19T06:34:40;16.50;99.90
52181;DHT22;38158;53.338;6.514;2022-08-19T06:37:07;16.60;99.90
52181;DHT22;38158;53.338;6.514;2022-08-19T06:39:35;16.70;99.90
52181;DHT22;38158;53.338;6.514;2022-08-19T06:42:03;16.80;99.90
52181;DHT22;38158;53.338;6.514;2022-08-19T06:44:34;16.90;99.90
52181;DHT22;38158;53.338;6.514;2022-08-19T06:47:07;17.00;99.90
52181;DHT22;38158;53.338;6.514;2022-08-19T06:49:34;17.10;99.90
52181;DHT22;38158;53.338;6.514;2022-08-19T06:52:00;17.20;99.90
52181;DHT22;38158;53.338;6.514;2022-08-19T06:54:26;17.30;99.90
52181;DHT22;38158;53.338;6.514;2022-08-19T06:56:54;17.40;99.90
52181;DHT22;38158;53.338;6.514;2022-08-19T06:59:21;17.50;99.90
52181;DHT22;38158;53.338;6.514;2022-08-19T07:01:50;17.60;99.90
52181;DHT22;38158;53.338;6.514;2022-08-19T07:04:20;17.70;99.90
52181;DHT22;38158;53.338;6.514;2022-08-19T07:06:46;17.80;99.90
52181;DHT22;38158;53.338;6.514;2022-08-19T07:09:15;17.90;99.90
52181;DHT22;38158;53.338;6.514;2022-08-19T07:11:46;18.00;99.90
52181;DHT22;38158;53.338;6.514;2022-08-19T07:14:13;18.10;99.90
52181;DHT22;38158;53.338;6.514;2022-08-19T07:16:39;18.10;99.90
52181;DHT22;38158;53.338;6.514;2022-08-19T07:19:05;18.30;99.90
52181;DHT22;38158;53.338;6.514;2022-08-19T07:21:31;18.40;99.90
52181;DHT22;38158;53.338;6.514;2022-08-19T07:23:59;18.40;99.90
52181;DHT22;38158;53.338;6.514;2022-08-19T07:26:28;18.60;99.90
52181;DHT22;38158;53.338;6.514;2022-08-19T07:28:56;18.70;99.90
52181;DHT22;38158;53.338;6.514;2022-08-19T07:31:25;18.80;99.90
52181;DHT22;38158;53.338;6.514;2022-08-19T07:33:53;18.90;99.90
52181;DHT22;38158;53.338;6.514;2022-08-19T07:36:23;19.00;99.90
52181;DHT22;38158;53.338;6.514;2022-08-19T07:38:50;19.10;99.90
52181;DHT22;38158;53.338;6.514;2022-08-19T07:41:21;19.20;99.90
52181;DHT22;38158;53.338;6.514;2022-08-19T07:43:48;19.30;99.90
52181;DHT22;38158;53.338;6.514;2022-08-19T07:46:15;19.40;99.90
52181;DHT22;38158;53.338;6.514;2022-08-19T07:48:43;19.50;99.90
52181;DHT22;38158;53.338;6.514;2022-08-19T07:51:17;19.60;99.90
52181;DHT22;38158;53.338;6.514;2022-08-19T07:53:43;19.60;99.90
52181;DHT22;38158;53.338;6.514;2022-08-19T07:56:12;19.70;99.90
52181;DHT22;38158;53.338;6.514;2022-08-19T07:58:42;19.80;99.90
52181;DHT22;38158;53.338;6.514;2022-08-19T08:01:12;19.90;99.90
52181;DHT22;38158;53.338;6.514;2022-08-19T08:03:38;20.00;99.90
52181;DHT22;38158;53.338;6.514;2022-08-19T08:06:23;20.10;99.90
52181;DHT22;38158;53.338;6.514;2022-08-19T08:09:08;20.30;99.90
52181;DHT22;38158;53.338;6.514;2022-08-19T08:11:45;20.30;99.90
52181;DHT22;38158;53.338;6.514;2022-08-19T08:14:20;20.50;99.90
52181;DHT22;38158;53.338;6.514;2022-08-19T08:16:46;20.70;99.90
52181;DHT22;38158;53.338;6.514;2022-08-19T08:19:14;20.70;99.90
52181;DHT22;38158;53.338;6.514;2022-08-19T08:21:42;20.80;99.90
52181;DHT22;38158;53.338;6.514;2022-08-19T08:24:09;20.90;99.90
52181;DHT22;38158;53.338;6.514;2022-08-19T08:26:35;21.00;99.90
52181;DHT22;38158;53.338;6.514;2022-08-19T08:29:01;21.10;99.90
52181;DHT22;38158;53.338;6.514;2022-08-19T08:31:26;21.30;99.90
52181;DHT22;38158;53.338;6.514;2022-08-19T08:33:52;21.40;99.90
52181;DHT22;38158;53.338;6.514;2022-08-19T08:36:18;21.50;99.90
52181;DHT22;38158;53.338;6.514;2022-08-19T08:38:44;21.60;99.90
52181;DHT22;38158;53.338;6.514;2022-08-19T08:43:56;21.70;99.90
52181;DHT22;38158;53.338;6.514;2022-08-19T08:51:46;22.00;99.90
52181;DHT22;38158;53.338;6.514;2022-08-19T08:54:16;22.10;99.90
52181;DHT22;38158;53.338;6.514;2022-08-19T08:56:43;22.10;99.90
52181;DHT22;38158;53.338;6.514;2022-08-19T08:59:12;22.20;99.90
52181;DHT22;38158;53.338;6.514;2022-08-19T09:01:42;22.20;99.90
52181;DHT22;38158;53.338;6.514;2022-08-19T09:04:09;22.40;99.90
52181;DHT22;38158;53.338;6.514;2022-08-19T09:09:24;22.60;99.90
52181;DHT22;38158;53.338;6.514;2022-08-19T09:12:05;22.60;99.90
52181;DHT22;38158;53.338;6.514;2022-08-19T09:17:21;22.70;99.90
52181;DHT22;38158;53.338;6.514;2022-08-19T09:19:59;22.70;99.90
52181;DHT22;38158;53.338;6.514;2022-08-19T09:22:30;22.80;99.90
52181;DHT22;38158;53.338;6.514;2022-08-19T09:24:56;22.90;99.90
52181;DHT22;38158;53.338;6.514;2022-08-19T09:27:23;22.90;99.90
52181;DHT22;38158;53.338;6.514;2022-08-19T09:29:50;23.10;99.90
52181;DHT22;38158;53.338;6.514;2022-08-19T09:32:16;23.20;99.90
52181;DHT22;38158;53.338;6.514;2022-08-19T09:34:43;23.30;99.90
52181;DHT22;38158;53.338;6.514;2022-08-19T09:37:09;23.40;99.90
52181;DHT22;38158;53.338;6.514;2022-08-19T09:39:35;23.60;99.90
52181;DHT22;38158;53.338;6.514;2022-08-19T09:42:01;23.70;99.90
52181;DHT22;38158;53.338;6.514;2022-08-19T09:44:29;23.70;99.90
52181;DHT22;38158;53.338;6.514;2022-08-19T09:46:55;23.80;99.90
52181;DHT22;38158;53.338;6.514;2022-08-19T09:49:21;23.80;99.90
52181;DHT22;38158;53.338;6.514;2022-08-19T09:51:51;23.80;99.90
52181;DHT22;38158;53.338;6.514;2022-08-19T09:54:17;23.90;99.90
52181;DHT22;38158;53.338;6.514;2022-08-19T09:56:43;24.00;99.90
52181;DHT22;38158;53.338;6.514;2022-08-19T09:59:10;24.00;99.90
52181;DHT22;38158;53.338;6.514;2022-08-19T10:01:37;24.10;99.90
52181;DHT22;38158;53.338;6.514;2022-08-19T10:04:03;24.10;99.90
52181;DHT22;38158;53.338;6.514;2022-08-19T10:06:35;24.00;99.90
52181;DHT22;38158;53.338;6.514;2022-08-19T10:09:02;24.00;99.90
52181;DHT22;38158;53.338;6.514;2022-08-19T10:11:29;24.20;99.90
52181;DHT22;38158;53.338;6.514;2022-08-19T10:13:55;24.20;99.90
52181;DHT22;38158;53.338;6.514;2022-08-19T10:16:23;24.30;99.90
52181;DHT22;38158;53.338;6.514;2022-08-19T10:18:49;24.30;99.90
52181;DHT22;38158;53.338;6.514;2022-08-19T10:21:25;24.40;99.90
52181;DHT22;38158;53.338;6.514;2022-08-19T10:23:52;24.50;99.90
52181;DHT22;38158;53.338;6.514;2022-08-19T10:26:22;24.50;99.90
52181;DHT22;38158;53.338;6.514;2022-08-19T10:28:49;24.60;99.90
52181;DHT22;38158;53.338;6.514;2022-08-19T10:31:18;24.60;99.90
52181;DHT22;38158;53.338;6.514;2022-08-19T10:33:46;24.70;99.90
52181;DHT22;38158;53.338;6.514;2022-08-19T10:36:16;24.70;99.90
52181;DHT22;38158;53.338;6.514;2022-08-19T10:38:47;24.70;98.90
52181;DHT22;38158;53.338;6.514;2022-08-19T10:41:23;24.70;99.90
52181;DHT22;38158;53.338;6.514;2022-08-19T10:43:53;24.80;99.30
52181;DHT22;38158;53.338;6.514;2022-08-19T10:46:20;24.80;98.50
52181;DHT22;38158;53.338;6.514;2022-08-19T10:48:48;24.80;99.90
52181;DHT22;38158;53.338;6.514;2022-08-19T10:51:14;24.90;99.90
52181;DHT22;38158;53.338;6.514;2022-08-19T10:53:58;25.00;99.80
52181;DHT22;38158;53.338;6.514;2022-08-19T10:56:26;25.00;99.50
52181;DHT22;38158;53.338;6.514;2022-08-19T10:59:11;25.00;99.20
52181;DHT22;38158;53.338;6.514;2022-08-19T11:01:39;25.10;99.60
52181;DHT22;38158;53.338;6.514;2022-08-19T11:04:06;25.20;98.60
52181;DHT22;38158;53.338;6.514;2022-08-19T11:06:35;25.20;97.60
52181;DHT22;38158;53.338;6.514;2022-08-19T11:09:02;25.20;98.00
52181;DHT22;38158;53.338;6.514;2022-08-19T11:11:28;25.30;98.90
52181;DHT22;38158;53.338;6.514;2022-08-19T11:13:54;25.30;98.50
52181;DHT22;38158;53.338;6.514;2022-08-19T11:16:23;25.30;98.30
52181;DHT22;38158;53.338;6.514;2022-08-19T11:18:51;25.40;98.80
52181;DHT22;38158;53.338;6.514;2022-08-19T11:23:47;25.60;97.30
52181;DHT22;38158;53.338;6.514;2022-08-19T11:26:15;25.60;97.00
52181;DHT22;38158;53.338;6.514;2022-08-19T11:28:41;25.50;96.70
52181;DHT22;38158;53.338;6.514;2022-08-19T11:31:13;25.60;96.40
52181;DHT22;38158;53.338;6.514;2022-08-19T11:33:40;25.60;95.60
52181;DHT22;38158;53.338;6.514;2022-08-19T11:36:06;25.60;95.20
52181;DHT22;38158;53.338;6.514;2022-08-19T11:38:33;25.50;95.30
52181;DHT22;38158;53.338;6.514;2022-08-19T11:41:03;25.60;96.00
52181;DHT22;38158;53.338;6.514;2022-08-19T11:43:30;25.70;95.40
52181;DHT22;38158;53.338;6.514;2022-08-19T11:45:56;25.70;95.50
52181;DHT22;38158;53.338;6.514;2022-08-19T11:48:23;25.70;95.60
52181;DHT22;38158;53.338;6.514;2022-08-19T11:50:49;25.70;94.70
52181;DHT22;38158;53.338;6.514;2022-08-19T11:53:19;25.60;93.70
52181;DHT22;38158;53.338;6.514;2022-08-19T11:55:49;25.50;95.20
52181;DHT22;38158;53.338;6.514;2022-08-19T11:58:16;25.50;95.90
52181;DHT22;38158;53.338;6.514;2022-08-19T12:00:43;25.50;94.70
52181;DHT22;38158;53.338;6.514;2022-08-19T12:03:11;25.50;94.80
52181;DHT22;38158;53.338;6.514;2022-08-19T12:05:37;25.50;93.80
52181;DHT22;38158;53.338;6.514;2022-08-19T12:08:04;25.50;91.60
52181;DHT22;38158;53.338;6.514;2022-08-19T12:10:29;25.50;93.90
52181;DHT22;38158;53.338;6.514;2022-08-19T12:12:55;25.50;93.60
52181;DHT22;38158;53.338;6.514;2022-08-19T12:15:21;25.50;93.60
52181;DHT22;38158;53.338;6.514;2022-08-19T12:17:47;25.50;93.90
52181;DHT22;38158;53.338;6.514;2022-08-19T12:20:13;25.50;93.10
52181;DHT22;38158;53.338;6.514;2022-08-19T12:22:41;25.50;93.70
52181;DHT22;38158;53.338;6.514;2022-08-19T12:25:09;25.50;94.00
52181;DHT22;38158;53.338;6.514;2022-08-19T12:27:35;25.50;93.80
52181;DHT22;38158;53.338;6.514;2022-08-19T12:30:05;25.60;93.70
52181;DHT22;38158;53.338;6.514;2022-08-19T12:32:31;25.50;94.20
52181;DHT22;38158;53.338;6.514;2022-08-19T12:34:56;25.50;94.70
52181;DHT22;38158;53.338;6.514;2022-08-19T12:37:22;25.50;93.80
52181;DHT22;38158;53.338;6.514;2022-08-19T12:39:48;25.50;93.90
52181;DHT22;38158;53.338;6.514;2022-08-19T12:42:14;25.60;94.40
52181;DHT22;38158;53.338;6.514;2022-08-19T12:44:42;25.60;94.50
52181;DHT22;38158;53.338;6.514;2022-08-19T12:47:11;25.70;95.00
52181;DHT22;38158;53.338;6.514;2022-08-19T12:49:37;25.80;95.20
52181;DHT22;38158;53.338;6.514;2022-08-19T12:52:06;25.90;95.30
52181;DHT22;38158;53.338;6.514;2022-08-19T12:54:33;25.70;97.00
52181;DHT22;38158;53.338;6.514;2022-08-19T12:56:59;25.30;99.70
52181;DHT22;38158;53.338;6.514;2022-08-19T12:59:26;24.70;99.90
52181;DHT22;38158;53.338;6.514;2022-08-19T13:01:52;24.30;99.90
52181;DHT22;38158;53.338;6.514;2022-08-19T13:04:18;23.90;99.90
52181;DHT22;38158;53.338;6.514;2022-08-19T13:06:44;23.70;99.90
52181;DHT22;38158;53.338;6.514;2022-08-19T13:09:10;23.40;99.90
52181;DHT22;38158;53.338;6.514;2022-08-19T13:11:37;23.30;99.90
52181;DHT22;38158;53.338;6.514;2022-08-19T13:14:04;23.10;99.90
52181;DHT22;38158;53.338;6.514;2022-08-19T13:16:30;23.00;99.90
52181;DHT22;38158;53.338;6.514;2022-08-19T13:18:56;22.90;99.90
52181;DHT22;38158;53.338;6.514;2022-08-19T13:21:25;22.90;99.90
52181;DHT22;38158;53.338;6.514;2022-08-19T13:23:52;22.80;99.90
52181;DHT22;38158;53.338;6.514;2022-08-19T13:26:20;22.70;99.90
52181;DHT22;38158;53.338;6.514;2022-08-19T13:28:46;22.70;99.90
52181;DHT22;38158;53.338;6.514;2022-08-19T13:31:33;22.70;99.90
52181;DHT22;38158;53.338;6.514;2022-08-19T13:34:19;22.70;99.90
52181;DHT22;38158;53.338;6.514;2022-08-19T13:36:52;22.70;99.90
52181;DHT22;38158;53.338;6.514;2022-08-19T13:39:18;22.80;99.90
52181;DHT22;38158;53.338;6.514;2022-08-19T13:41:45;22.80;99.90
52181;DHT22;38158;53.338;6.514;2022-08-19T13:44:16;22.90;99.90
52181;DHT22;38158;53.338;6.514;2022-08-19T13:46:44;22.90;99.90
52181;DHT22;38158;53.338;6.514;2022-08-19T13:49:13;23.00;99.90
52181;DHT22;38158;53.338;6.514;2022-08-19T13:51:41;23.10;99.90
52181;DHT22;38158;53.338;6.514;2022-08-19T13:54:07;23.10;99.90
52181;DHT22;38158;53.338;6.514;2022-08-19T13:56:34;23.10;99.90
52181;DHT22;38158;53.338;6.514;2022-08-19T13:59:00;23.10;99.90
52181;DHT22;38158;53.338;6.514;2022-08-19T14:01:26;23.20;99.90
52181;DHT22;38158;53.338;6.514;2022-08-19T14:03:52;23.10;99.90
52181;DHT22;38158;53.338;6.514;2022-08-19T14:06:19;23.10;99.90
52181;DHT22;38158;53.338;6.514;2022-08-19T14:08:45;23.00;99.90
52181;DHT22;38158;53.338;6.514;2022-08-19T14:11:11;23.00;99.90
52181;DHT22;38158;53.338;6.514;2022-08-19T14:13:36;22.90;99.90
52181;DHT22;38158;53.338;6.514;2022-08-19T14:16:07;22.90;99.90
52181;DHT22;38158;53.338;6.514;2022-08-19T14:18:34;22.90;99.90
52181;DHT22;38158;53.338;6.514;2022-08-19T14:21:00;22.90;99.90
52181;DHT22;38158;53.338;6.514;2022-08-19T14:23:25;22.80;99.90
52181;DHT22;38158;53.338;6.514;2022-08-19T14:25:51;22.80;99.90
52181;DHT22;38158;53.338;6.514;2022-08-19T14:28:17;22.80;99.90
52181;DHT22;38158;53.338;6.514;2022-08-19T14:30:43;22.90;99.90
52181;DHT22;38158;53.338;6.514;2022-08-19T14:33:10;23.10;99.90
52181;DHT22;38158;53.338;6.514;2022-08-19T14:35:36;23.20;99.90
52181;DHT22;38158;53.338;6.514;2022-08-19T14:38:03;23.30;99.90
52181;DHT22;38158;53.338;6.514;2022-08-19T14:40:30;23.40;99.90
52181;DHT22;38158;53.338;6.514;2022-08-19T14:43:02;23.30;99.90
52181;DHT22;38158;53.338;6.514;2022-08-19T14:45:35;23.30;99.90
52181;DHT22;38158;53.338;6.514;2022-08-19T14:48:02;23.20;99.90
52181;DHT22;38158;53.338;6.514;2022-08-19T14:50:28;23.30;99.90
52181;DHT22;38158;53.338;6.514;2022-08-19T14:53:07;23.30;99.90
52181;DHT22;38158;53.338;6.514;2022-08-19T14:55:33;23.50;99.90
52181;DHT22;38158;53.338;6.514;2022-08-19T14:57:59;23.60;99.90
52181;DHT22;38158;53.338;6.514;2022-08-19T15:00:25;23.50;99.90
52181;DHT22;38158;53.338;6.514;2022-08-19T15:02:52;23.40;99.90
52181;DHT22;38158;53.338;6.514;2022-08-19T15:05:20;23.20;99.90
52181;DHT22;38158;53.338;6.514;2022-08-19T15:07:46;23.00;99.90
52181;DHT22;38158;53.338;6.514;2022-08-19T15:10:14;22.80;99.90
52181;DHT22;38158;53.338;6.514;2022-08-19T15:12:39;22.70;99.90
52181;DHT22;38158;53.338;6.514;2022-08-19T15:15:08;22.50;99.90
52181;DHT22;38158;53.338;6.514;2022-08-19T15:17:34;22.40;99.90
52181;DHT22;38158;53.338;6.514;2022-08-19T15:20:04;22.40;99.90
52181;DHT22;38158;53.338;6.514;2022-08-19T15:22:30;22.50;99.90
52181;DHT22;38158;53.338;6.514;2022-08-19T15:24:55;22.50;99.90
52181;DHT22;38158;53.338;6.514;2022-08-19T15:27:21;22.50;99.90
52181;DHT22;38158;53.338;6.514;2022-08-19T15:29:47;22.50;99.90
52181;DHT22;38158;53.338;6.514;2022-08-19T15:32:12;22.50;99.90
52181;DHT22;38158;53.338;6.514;2022-08-19T15:34:38;22.40;99.90
52181;DHT22;38158;53.338;6.514;2022-08-19T15:37:04;22.30;99.90
52181;DHT22;38158;53.338;6.514;2022-08-19T15:39:31;22.20;99.90
52181;DHT22;38158;53.338;6.514;2022-08-19T15:41:56;22.00;99.90
52181;DHT22;38158;53.338;6.514;2022-08-19T15:44:25;21.90;99.90
52181;DHT22;38158;53.338;6.514;2022-08-19T15:46:50;21.80;99.90
52181;DHT22;38158;53.338;6.514;2022-08-19T15:49:17;21.70;99.90
52181;DHT22;38158;53.338;6.514;2022-08-19T15:51:45;21.60;99.90
52181;DHT22;38158;53.338;6.514;2022-08-19T15:54:14;21.50;99.90
52181;DHT22;38158;53.338;6.514;2022-08-19T15:56:40;21.40;99.90